Time;durP1;ratioP1;P1;durP2;ratioP2;P2;SDS_P1;SDS_P2;PMS_P1;PMS_P2;Temp;Humidity;BMP_temperature;BMP_pressure;BME280_temperature;BME280_humidity;BME280_pressure;Samples;Min_cycle;Max_cycle;Signal;HPM_P1;HPM_P2
2023/08/18 00:00:51;;;;;;;3.80;2.80;;;22.80;99.90;;;;;;950612;147;27345;-76
2023/08/18 00:03:18;;;;;;;3.10;2.90;;;22.80;99.90;;;;;;950606;147;28025;-77
2023/08/18 00:05:44;;;;;;;2.83;2.62;;;22.70;99.90;;;;;;949956;147;27374;-77
2023/08/18 00:08:11;;;;;;;3.40;3.08;;;22.70;99.90;;;;;;926899;150;27936;-76
2023/08/18 00:10:38;;;;;;;2.85;2.65;;;22.70;99.90;;;;;;949562;147;27347;-76
2023/08/18 00:13:04;;;;;;;2.87;2.67;;;22.70;99.90;;;;;;927259;150;27359;-77
2023/08/18 00:15:31;;;;;;;3.90;3.17;;;22.70;99.90;;;;;;950064;147;27481;-77
2023/08/18 00:17:57;;;;;;;4.83;3.02;;;22.70;99.90;;;;;;950926;147;27293;-76
2023/08/18 00:20:24;;;;;;;3.75;3.33;;;22.70;99.90;;;;;;951208;147;27306;-76
2023/08/18 00:22:51;;;;;;;4.83;3.30;;;22.60;99.90;;;;;;950445;147;27326;-75
2023/08/18 00:25:17;;;;;;;4.17;3.75;;;22.60;99.90;;;;;;951249;147;27333;-76
2023/08/18 00:27:44;;;;;;;4.45;4.05;;;22.60;99.90;;;;;;950382;147;27396;-77
2023/08/18 00:30:10;;;;;;;4.35;3.92;;;22.60;99.90;;;;;;950571;147;27243;-77
2023/08/18 00:32:37;;;;;;;5.37;3.42;;;22.60;99.90;;;;;;950616;147;27360;-76
2023/08/18 00:35:04;;;;;;;4.42;3.98;;;22.70;99.90;;;;;;950713;147;27421;-77
2023/08/18 00:37:30;;;;;;;3.65;3.35;;;22.60;99.90;;;;;;949886;147;27337;-76
2023/08/18 00:39:57;;;;;;;3.62;3.12;;;22.60;99.90;;;;;;950753;147;27866;-77
2023/08/18 00:42:23;;;;;;;4.05;3.42;;;22.70;99.90;;;;;;949885;147;27386;-76
2023/08/18 00:44:50;;;;;;;3.98;3.67;;;22.70;99.90;;;;;;951395;147;27399;-75
2023/08/18 00:47:17;;;;;;;3.85;3.50;;;22.60;99.90;;;;;;950020;147;27475;-77
2023/08/18 00:49:43;;;;;;;3.70;3.40;;;22.60;99.90;;;;;;951219;147;27309;-76
2023/08/18 00:52:10;;;;;;;4.05;3.50;;;22.60;99.90;;;;;;951349;147;27313;-77
2023/08/18 00:54:36;;;;;;;5.55;3.87;;;22.70;99.90;;;;;;951090;147;27324;-76
2023/08/18 00:57:03;;;;;;;3.70;3.40;;;22.60;99.90;;;;;;951069;147;27441;-76
2023/08/18 00:59:29;;;;;;;4.58;4.10;;;22.60;99.90;;;;;;950565;147;27333;-77
2023/08/18 01:02:02;;;;;;;3.50;3.20;;;22.60;99.90;;;;;;951817;147;27960;-76
2023/08/18 01:04:23;;;;;;;3.65;3.27;;;22.60;99.90;;;;;;950599;147;27333;-76
2023/08/18 01:06:49;;;;;;;3.72;3.42;;;22.60;99.90;;;;;;951055;147;27306;-75
2023/08/18 01:09:16;;;;;;;4.12;3.12;;;22.60;99.90;;;;;;950818;147;27472;-76
2023/08/18 01:11:48;;;;;;;3.17;2.98;;;22.60;99.90;;;;;;951231;147;28161;-76
2023/08/18 01:14:20;;;;;;;3.83;3.52;;;22.60;99.90;;;;;;949466;147;27326;-76
2023/08/18 01:16:50;;;;;;;4.20;3.10;;;22.60;99.90;;;;;;949514;147;27422;-77
2023/08/18 01:19:17;;;;;;;3.30;3.00;;;22.60;99.90;;;;;;949038;147;27349;-75
2023/08/18 01:21:43;;;;;;;3.80;3.50;;;22.60;99.90;;;;;;951439;146;27255;-76
2023/08/18 01:24:10;;;;;;;3.50;3.20;;;22.60;99.90;;;;;;963447;145;27339;-76
2023/08/18 01:26:36;;;;;;;3.80;3.50;;;22.50;99.90;;;;;;963424;145;27398;-76
2023/08/18 01:29:03;;;;;;;3.62;3.20;;;22.50;99.90;;;;;;963945;146;27347;-76
2023/08/18 01:31:29;;;;;;;3.58;3.27;;;22.50;99.90;;;;;;964204;146;27270;-76
2023/08/18 01:34:08;;;;;;;3.40;3.10;;;22.40;99.90;;;;;;963695;146;27345;-76
2023/08/18 01:36:41;;;;;;;4.05;2.95;;;22.40;99.90;;;;;;963543;145;27426;-76
2023/08/18 01:39:06;;;;;;;5.45;3.60;;;22.30;99.90;;;;;;963277;145;27338;-76
2023/08/18 01:41:33;;;;;;;3.65;3.25;;;22.30;99.90;;;;;;964176;146;27307;-76
2023/08/18 01:44:00;;;;;;;3.25;3.00;;;22.30;99.90;;;;;;963745;146;27248;-76
2023/08/18 01:46:26;;;;;;;2.92;2.72;;;22.20;99.90;;;;;;963977;145;27316;-76
2023/08/18 01:48:53;;;;;;;3.10;2.80;;;22.20;99.90;;;;;;963566;146;27335;-76
2023/08/18 01:51:19;;;;;;;3.62;2.77;;;22.10;99.90;;;;;;964473;146;27311;-76
2023/08/18 01:53:46;;;;;;;3.22;3.00;;;22.10;99.90;;;;;;963329;145;27331;-76
2023/08/18 01:56:13;;;;;;;3.10;2.90;;;22.00;99.90;;;;;;963885;145;27392;-76
2023/08/18 01:58:39;;;;;;;3.90;2.95;;;22.00;99.90;;;;;;964279;146;27806;-76
2023/08/18 02:01:06;;;;;;;5.45;3.17;;;22.00;99.90;;;;;;964626;145;27431;-76
2023/08/18 02:03:32;;;;;;;3.12;2.87;;;21.90;99.90;;;;;;964142;146;27314;-76
2023/08/18 02:05:59;;;;;;;3.30;3.08;;;21.90;99.90;;;;;;964232;146;27348;-76
2023/08/18 02:08:25;;;;;;;4.47;3.20;;;21.80;99.90;;;;;;964051;145;27418;-76
2023/08/18 02:10:52;;;;;;;2.75;2.55;;;21.80;99.90;;;;;;964200;145;27814;-76
2023/08/18 02:13:19;;;;;;;3.50;2.98;;;21.70;99.90;;;;;;963824;146;27303;-76
2023/08/18 02:15:45;;;;;;;3.22;3.02;;;21.70;99.90;;;;;;963698;147;27317;-76
2023/08/18 02:18:12;;;;;;;3.35;3.15;;;21.70;99.90;;;;;;963637;145;27276;-76
2023/08/18 02:20:38;;;;;;;3.40;3.20;;;21.60;99.90;;;;;;962913;146;27330;-76
2023/08/18 02:23:05;;;;;;;3.85;3.55;;;21.60;99.90;;;;;;963918;145;27378;-76
2023/08/18 02:25:32;;;;;;;3.15;2.95;;;21.60;99.90;;;;;;957054;147;27446;-76
2023/08/18 02:27:58;;;;;;;6.80;3.80;;;21.60;99.90;;;;;;963619;147;27307;-76
2023/08/18 02:30:25;;;;;;;3.22;3.02;;;21.50;99.90;;;;;;964279;148;27451;-75
2023/08/18 02:32:51;;;;;;;4.83;3.10;;;21.50;99.90;;;;;;964460;148;27405;-75
2023/08/18 02:35:18;;;;;;;3.27;3.02;;;21.50;99.90;;;;;;963128;147;27283;-75
2023/08/18 02:37:45;;;;;;;3.27;3.08;;;21.50;99.90;;;;;;963845;147;27317;-76
2023/08/18 02:40:11;;;;;;;3.15;2.90;;;21.40;99.90;;;;;;963429;147;27780;-76
2023/08/18 02:42:38;;;;;;;2.95;2.75;;;21.40;99.90;;;;;;964187;148;27450;-75
2023/08/18 02:45:04;;;;;;;3.20;2.83;;;21.40;99.90;;;;;;963812;148;27342;-76
2023/08/18 02:47:31;;;;;;;3.37;3.08;;;21.30;99.90;;;;;;964497;147;27319;-75
2023/08/18 02:49:57;;;;;;;3.17;2.72;;;21.30;99.90;;;;;;965073;148;27326;-76
2023/08/18 02:52:24;;;;;;;3.30;3.00;;;21.30;99.90;;;;;;961254;148;27331;-76
2023/08/18 02:54:51;;;;;;;3.72;3.25;;;21.30;99.90;;;;;;961363;147;27432;-75
2023/08/18 02:57:17;;;;;;;3.45;3.15;;;21.20;99.90;;;;;;961040;148;27942;-76
2023/08/18 02:59:44;;;;;;;3.25;3.05;;;21.20;99.90;;;;;;963665;148;27307;-75
2023/08/18 03:02:10;;;;;;;3.80;3.50;;;21.20;99.90;;;;;;964696;148;27255;-76
2023/08/18 03:04:37;;;;;;;3.50;3.20;;;21.10;99.90;;;;;;965212;148;27329;-76
2023/08/18 03:07:04;;;;;;;3.30;2.90;;;21.10;99.90;;;;;;957702;149;27345;-75
2023/08/18 03:09:30;;;;;;;2.83;2.62;;;21.10;99.90;;;;;;958842;148;27367;-76
2023/08/18 03:11:57;;;;;;;3.50;3.20;;;21.00;99.90;;;;;;958797;148;27427;-76
2023/08/18 03:14:23;;;;;;;3.05;2.85;;;21.00;99.90;;;;;;958722;149;27330;-76
2023/08/18 03:16:50;;;;;;;3.77;2.98;;;21.00;99.90;;;;;;957135;148;27424;-75
2023/08/18 03:19:18;;;;;;;3.10;2.80;;;20.90;99.90;;;;;;959582;149;27351;-75
2023/08/18 03:21:43;;;;;;;3.52;2.70;;;20.90;99.90;;;;;;959271;149;27621;-75
2023/08/18 03:24:10;;;;;;;4.33;3.15;;;20.90;99.90;;;;;;955687;148;27380;-76
2023/08/18 03:26:36;;;;;;;3.60;3.30;;;20.80;99.90;;;;;;933000;150;27501;-76
2023/08/18 03:29:03;;;;;;;3.55;3.17;;;20.80;99.90;;;;;;950217;146;28161;-75
2023/08/18 03:31:30;;;;;;;3.42;3.10;;;20.80;99.90;;;;;;927611;150;27313;-75
2023/08/18 03:33:56;;;;;;;4.45;3.30;;;20.70;99.90;;;;;;950295;147;27293;-75
2023/08/18 03:36:23;;;;;;;3.35;2.95;;;20.70;99.90;;;;;;951173;147;27888;-75
2023/08/18 03:38:49;;;;;;;3.47;3.05;;;20.70;99.90;;;;;;950185;147;27341;-76
2023/08/18 03:41:16;;;;;;;3.27;2.95;;;20.70;99.90;;;;;;950492;147;27914;-77
2023/08/18 03:43:42;;;;;;;3.60;3.30;;;20.60;99.90;;;;;;950033;147;27246;-76
2023/08/18 03:46:18;;;;;;;3.58;3.33;;;20.60;99.90;;;;;;951464;147;27313;-76
2023/08/18 03:48:44;;;;;;;3.40;3.05;;;20.60;99.90;;;;;;947689;147;27309;-76
2023/08/18 03:51:11;;;;;;;3.85;3.55;;;20.50;99.90;;;;;;951321;147;27337;-76
2023/08/18 03:53:38;;;;;;;3.67;3.20;;;20.50;99.90;;;;;;951250;147;27383;-76
2023/08/18 03:56:04;;;;;;;3.83;3.52;;;20.50;99.90;;;;;;950587;147;27390;-76
2023/08/18 03:58:31;;;;;;;3.72;3.22;;;20.50;99.90;;;;;;949970;147;27421;-76
2023/08/18 04:00:57;;;;;;;3.92;3.60;;;20.50;99.90;;;;;;949820;147;27437;-76
2023/08/18 04:03:24;;;;;;;3.98;3.58;;;20.50;99.90;;;;;;948373;147;27338;-76
2023/08/18 04:05:50;;;;;;;4.03;3.72;;;20.50;99.90;;;;;;950730;147;27285;-76
2023/08/18 04:08:17;;;;;;;3.60;3.30;;;20.40;99.90;;;;;;952116;147;28313;-76
2023/08/18 04:10:44;;;;;;;3.83;3.47;;;20.40;99.90;;;;;;951176;147;27315;-76
2023/08/18 04:13:10;;;;;;;3.42;3.12;;;20.40;99.90;;;;;;950574;147;27333;-76
2023/08/18 04:15:37;;;;;;;3.83;3.42;;;20.40;99.90;;;;;;950552;147;27316;-76
2023/08/18 04:18:03;;;;;;;3.80;3.50;;;20.40;99.90;;;;;;951457;147;27309;-76
2023/08/18 04:20:30;;;;;;;3.67;3.37;;;20.40;99.90;;;;;;950909;147;27328;-76
2023/08/18 04:22:57;;;;;;;4.30;3.77;;;20.40;99.90;;;;;;951280;147;27384;-76
2023/08/18 04:25:23;;;;;;;4.03;3.72;;;20.30;99.90;;;;;;961462;146;27370;-76
2023/08/18 04:27:50;;;;;;;6.05;3.72;;;20.30;99.90;;;;;;963908;145;27399;-76
2023/08/18 04:30:16;;;;;;;5.25;3.87;;;20.30;99.90;;;;;;964244;145;27376;-76
2023/08/18 04:32:43;;;;;;;4.40;4.00;;;20.30;99.90;;;;;;964418;146;27371;-76
2023/08/18 04:35:10;;;;;;;3.62;3.33;;;20.30;99.90;;;;;;964448;146;27768;-76
2023/08/18 04:37:36;;;;;;;4.00;3.70;;;20.30;99.90;;;;;;964052;145;27398;-76
2023/08/18 04:40:04;;;;;;;4.10;3.80;;;20.30;99.90;;;;;;962479;145;27303;-76
2023/08/18 04:42:29;;;;;;;4.45;4.05;;;20.30;99.90;;;;;;963289;145;27259;-76
2023/08/18 04:44:56;;;;;;;3.52;3.33;;;20.30;99.90;;;;;;963695;145;27473;-76
2023/08/18 04:47:23;;;;;;;3.85;3.40;;;20.30;99.90;;;;;;964236;145;27457;-76
2023/08/18 04:49:49;;;;;;;3.80;3.50;;;20.30;99.90;;;;;;963655;145;27407;-76
2023/08/18 04:52:16;;;;;;;3.40;3.20;;;20.30;99.90;;;;;;963600;146;27335;-76
2023/08/18 04:54:42;;;;;;;3.77;3.33;;;20.30;99.90;;;;;;963788;145;27342;-76
2023/08/18 04:57:10;;;;;;;6.37;3.85;;;20.40;99.90;;;;;;963624;145;27452;-78
2023/08/18 04:59:35;;;;;;;4.20;3.58;;;20.40;99.90;;;;;;963963;146;27312;-78
2023/08/18 05:02:02;;;;;;;3.58;3.27;;;20.50;99.90;;;;;;964131;145;27299;-77
2023/08/18 05:04:29;;;;;;;3.77;3.47;;;20.50;99.90;;;;;;963876;145;27408;-77
2023/08/18 05:06:55;;;;;;;3.83;3.52;;;20.50;99.90;;;;;;963757;145;27361;-78
2023/08/18 05:09:22;;;;;;;4.58;3.75;;;20.70;99.90;;;;;;963867;145;27770;-77
2023/08/18 05:11:48;;;;;;;4.22;3.83;;;20.80;99.90;;;;;;963997;145;27323;-77
2023/08/18 05:14:15;;;;;;;3.62;3.33;;;21.00;99.90;;;;;;963708;145;27303;-78
2023/08/18 05:16:42;;;;;;;3.77;3.37;;;21.10;99.90;;;;;;963809;145;27342;-77
2023/08/18 05:19:08;;;;;;;3.33;3.08;;;21.40;99.90;;;;;;963650;145;27659;-77
2023/08/18 05:21:35;;;;;;;3.40;3.10;;;21.70;99.90;;;;;;964126;146;28763;-78
2023/08/18 05:24:01;;;;;;;3.20;2.90;;;22.10;99.90;;;;;;963507;146;27308;-78
2023/08/18 05:26:28;;;;;;;3.35;2.80;;;22.60;99.90;;;;;;963435;145;27464;-77
2023/08/18 05:28:55;;;;;;;3.02;2.70;;;23.00;99.90;;;;;;964101;146;27842;-77
2023/08/18 05:31:21;;;;;;;4.35;2.80;;;23.50;99.90;;;;;;963608;145;27339;-78
2023/08/18 05:33:48;;;;;;;3.20;2.90;;;24.10;99.90;;;;;;963652;146;27310;-78
2023/08/18 05:36:14;;;;;;;3.40;2.83;;;24.70;99.90;;;;;;963740;145;27669;-78
2023/08/18 05:38:41;;;;;;;2.80;2.60;;;25.20;99.90;;;;;;963584;145;27427;-77
2023/08/18 05:41:08;;;;;;;2.70;2.50;;;25.80;99.90;;;;;;963667;145;27343;-78
2023/08/18 05:43:35;;;;;;;3.27;2.62;;;26.40;99.90;;;;;;962332;145;27328;-78
2023/08/18 05:46:01;;;;;;;3.08;2.77;;;26.90;99.90;;;;;;963739;145;27682;-78
2023/08/18 05:48:27;;;;;;;2.60;2.40;;;27.50;99.90;;;;;;945805;149;27335;-78
2023/08/18 05:50:54;;;;;;;2.27;2.12;;;28.10;99.90;;;;;;951236;148;27401;-77
2023/08/18 05:53:20;;;;;;;2.60;2.40;;;28.70;99.90;;;;;;946462;149;27373;-77
2023/08/18 05:55:48;;;;;;;2.55;2.35;;;29.40;99.90;;;;;;963347;145;27323;-78
2023/08/18 05:58:14;;;;;;;4.08;2.52;;;30.00;99.90;;;;;;962257;145;27348;-78
2023/08/18 06:00:41;;;;;;;2.42;2.22;;;30.50;99.50;;;;;;964240;145;27236;-77
2023/08/18 06:03:07;;;;;;;2.55;2.33;;;31.10;97.30;;;;;;963865;146;27346;-76
2023/08/18 06:05:36;;;;;;;3.85;2.00;;;31.60;95.20;;;;;;963983;145;27356;-76
2023/08/18 06:08:03;;;;;;;4.30;2.12;;;32.10;92.70;;;;;;963835;145;27353;-76
2023/08/18 06:10:29;;;;;;;2.10;2.00;;;32.60;91.20;;;;;;964209;145;27311;-77
2023/08/18 06:12:56;;;;;;;2.20;2.00;;;33.10;87.10;;;;;;964239;146;27695;-77
2023/08/18 06:15:22;;;;;;;2.30;2.10;;;33.40;85.30;;;;;;964269;146;27355;-77
2023/08/18 06:17:49;;;;;;;1.90;1.60;;;33.90;82.80;;;;;;940476;149;26280;-77
2023/08/18 06:20:16;;;;;;;2.37;2.10;;;34.30;80.20;;;;;;963985;145;26260;-77
2023/08/18 06:22:42;;;;;;;1.92;1.80;;;34.70;77.70;;;;;;963366;145;26223;-77
2023/08/18 06:25:09;;;;;;;2.00;1.90;;;35.10;75.50;;;;;;963833;145;26431;-77
2023/08/18 06:27:35;;;;;;;3.27;1.98;;;35.50;73.20;;;;;;963808;145;26219;-77
2023/08/18 06:30:02;;;;;;;2.27;2.08;;;35.80;71.40;;;;;;963344;145;26323;-77
2023/08/18 06:32:29;;;;;;;2.27;1.75;;;36.20;69.70;;;;;;964010;146;26209;-77
2023/08/18 06:34:55;;;;;;;2.12;1.60;;;36.60;68.10;;;;;;963656;145;26327;-77
2023/08/18 06:37:22;;;;;;;2.27;1.87;;;36.80;66.60;;;;;;963713;145;26359;-77
2023/08/18 06:39:48;;;;;;;2.47;2.10;;;37.10;64.90;;;;;;962479;145;26223;-77
2023/08/18 06:42:15;;;;;;;2.05;1.85;;;37.40;64.00;;;;;;963081;145;26294;-77
2023/08/18 06:44:42;;;;;;;2.35;1.80;;;37.60;62.80;;;;;;964250;146;26374;-77
2023/08/18 06:47:08;;;;;;;2.70;1.90;;;37.90;62.10;;;;;;963732;145;26270;-77
2023/08/18 06:49:35;;;;;;;3.22;2.10;;;38.10;60.90;;;;;;963917;145;26263;-74
2023/08/18 06:52:01;;;;;;;1.98;1.55;;;38.40;59.80;;;;;;963154;146;26250;-74
2023/08/18 06:54:28;;;;;;;1.98;1.85;;;38.60;59.40;;;;;;963462;145;26235;-75
2023/08/18 06:56:55;;;;;;;2.77;1.90;;;38.80;58.40;;;;;;964112;145;26333;-75
2023/08/18 06:59:22;;;;;;;2.02;1.80;;;39.10;57.60;;;;;;964001;145;26348;-75
2023/08/18 07:01:48;;;;;;;2.52;2.05;;;39.30;57.20;;;;;;963403;146;26320;-75
2023/08/18 07:04:14;;;;;;;1.62;1.52;;;39.50;56.60;;;;;;963598;145;26823;-74
2023/08/18 07:06:41;;;;;;;1.70;1.60;;;39.70;55.80;;;;;;963680;145;26196;-75
2023/08/18 07:09:09;;;;;;;1.85;1.50;;;39.90;55.40;;;;;;962639;146;26757;-74
2023/08/18 07:11:34;;;;;;;1.92;1.77;;;40.20;54.70;;;;;;963899;145;26251;-76
2023/08/18 07:14:01;;;;;;;2.75;2.08;;;40.40;54.20;;;;;;962853;145;26341;-76
2023/08/18 07:16:27;;;;;;;1.72;1.60;;;40.60;53.20;;;;;;963637;146;26254;-76
2023/08/18 07:18:54;;;;;;;1.85;1.72;;;40.80;53.00;;;;;;964150;146;26215;-76
2023/08/18 07:21:20;;;;;;;3.00;1.72;;;41.00;52.20;;;;;;964318;145;26275;-76
2023/08/18 07:23:47;;;;;;;1.70;1.50;;;41.10;51.30;;;;;;963632;145;26239;-76
2023/08/18 07:26:14;;;;;;;2.05;1.50;;;41.30;50.80;;;;;;963564;145;26295;-76
2023/08/18 07:28:40;;;;;;;1.85;1.70;;;41.30;50.40;;;;;;963559;145;26211;-76
2023/08/18 07:31:07;;;;;;;1.70;1.60;;;41.40;50.10;;;;;;963241;145;26398;-76
2023/08/18 07:33:34;;;;;;;1.67;1.57;;;41.50;49.40;;;;;;963753;146;26262;-76
2023/08/18 07:36:00;;;;;;;1.92;1.72;;;41.60;49.00;;;;;;963860;147;26216;-76
2023/08/18 07:38:27;;;;;;;2.33;1.35;;;41.70;48.60;;;;;;963918;145;26191;-76
2023/08/18 07:40:53;;;;;;;1.62;1.40;;;41.70;48.20;;;;;;964121;145;26641;-76
2023/08/18 07:43:20;;;;;;;2.22;1.70;;;41.80;47.90;;;;;;963357;145;26270;-76
2023/08/18 07:45:46;;;;;;;4.97;1.92;;;41.80;47.80;;;;;;964059;145;26307;-76
2023/08/18 07:48:13;;;;;;;1.55;1.45;;;42.00;47.50;;;;;;963818;145;26316;-76
2023/08/18 07:50:42;;;;;;;1.98;1.65;;;42.20;47.50;;;;;;963983;146;26291;-76
2023/08/18 07:53:09;;;;;;;2.52;1.62;;;42.30;47.10;;;;;;963295;145;26275;-78
2023/08/18 07:55:36;;;;;;;1.50;1.40;;;42.60;47.30;;;;;;963927;145;26251;-79
2023/08/18 07:58:03;;;;;;;1.42;1.37;;;42.80;47.10;;;;;;962799;145;26324;-78
2023/08/18 08:00:30;;;;;;;1.98;1.50;;;43.20;46.60;;;;;;963733;146;26203;-78
2023/08/18 08:02:55;;;;;;;2.83;1.40;;;43.50;45.90;;;;;;963200;145;26247;-76
2023/08/18 08:05:22;;;;;;;1.95;1.62;;;43.90;45.30;;;;;;963896;145;26236;-76
2023/08/18 08:07:49;;;;;;;2.45;1.50;;;44.20;44.20;;;;;;964528;145;26749;-75
2023/08/18 08:10:15;;;;;;;2.25;1.40;;;44.40;43.70;;;;;;964729;146;26281;-75
2023/08/18 08:12:42;;;;;;;1.65;1.55;;;44.40;43.00;;;;;;964033;145;26815;-75
2023/08/18 08:15:08;;;;;;;2.45;1.80;;;44.40;42.80;;;;;;942062;149;26292;-75
2023/08/18 08:17:35;;;;;;;1.50;1.40;;;44.50;42.80;;;;;;950341;148;26254;-75
2023/08/18 08:20:15;;;;;;;1.75;1.60;;;44.50;42.50;;;;;;946177;148;26285;-75
2023/08/18 08:22:28;;;;;;;2.08;1.55;;;44.60;42.90;;;;;;957577;145;27997;-75
2023/08/18 08:24:55;;;;;;;1.52;1.42;;;44.70;42.40;;;;;;964428;146;26251;-75
2023/08/18 08:27:21;;;;;;;2.33;1.60;;;44.90;41.80;;;;;;964164;145;26412;-75
2023/08/18 08:29:48;;;;;;;1.98;1.30;;;45.00;41.30;;;;;;964195;146;26204;-75
2023/08/18 08:32:15;;;;;;;1.70;1.20;;;45.20;41.20;;;;;;963936;145;26228;-75
2023/08/18 08:34:41;;;;;;;1.40;1.30;;;45.20;40.50;;;;;;963687;145;26167;-75
2023/08/18 08:37:08;;;;;;;2.02;1.55;;;45.30;40.60;;;;;;962103;145;26336;-75
2023/08/18 08:39:34;;;;;;;2.70;1.45;;;45.40;40.40;;;;;;964305;145;26243;-75
2023/08/18 08:42:01;;;;;;;3.52;1.37;;;45.50;40.30;;;;;;963742;145;26304;-75
2023/08/18 08:44:28;;;;;;;1.40;1.30;;;45.70;40.00;;;;;;964376;145;26220;-76
2023/08/18 08:46:54;;;;;;;3.05;1.50;;;45.90;39.60;;;;;;964173;145;26329;-76
2023/08/18 08:49:21;;;;;;;1.27;1.25;;;46.10;39.30;;;;;;942364;149;26284;-76
2023/08/18 08:51:48;;;;;;;1.55;1.45;;;46.20;39.00;;;;;;963343;145;26216;-76
2023/08/18 08:54:14;;;;;;;1.67;1.50;;;46.30;38.70;;;;;;963261;145;26245;-76
2023/08/18 08:56:40;;;;;;;1.90;1.35;;;46.40;38.40;;;;;;963142;146;26348;-76
2023/08/18 08:59:07;;;;;;;1.62;1.40;;;46.60;38.30;;;;;;962695;145;26242;-76
2023/08/18 09:01:34;;;;;;;2.05;1.22;;;46.80;38.20;;;;;;964288;145;26169;-76
2023/08/18 09:04:00;;;;;;;1.87;1.50;;;47.00;38.00;;;;;;963734;145;26223;-76
2023/08/18 09:06:27;;;;;;;1.50;1.40;;;47.20;37.60;;;;;;963675;145;26224;-76
2023/08/18 09:08:53;;;;;;;1.32;1.22;;;47.40;37.10;;;;;;963438;145;26376;-76
2023/08/18 09:11:20;;;;;;;1.72;1.20;;;47.60;36.80;;;;;;963565;145;26340;-76
2023/08/18 09:13:47;;;;;;;1.75;1.50;;;47.70;36.30;;;;;;959729;146;26206;-76
2023/08/18 09:16:13;;;;;;;1.45;1.35;;;47.90;36.40;;;;;;963690;145;26219;-76
2023/08/18 09:18:40;;;;;;;1.40;1.30;;;47.90;36.10;;;;;;963681;145;26262;-76
2023/08/18 09:21:06;;;;;;;1.80;1.70;;;48.20;36.00;;;;;;964260;145;26264;-76
2023/08/18 09:23:33;;;;;;;1.45;1.35;;;48.20;35.60;;;;;;946547;148;26622;-76
2023/08/18 09:25:59;;;;;;;2.47;1.65;;;48.30;35.50;;;;;;943564;149;26374;-76
2023/08/18 09:28:26;;;;;;;2.83;1.67;;;48.40;34.90;;;;;;963561;145;26339;-76
2023/08/18 09:30:53;;;;;;;1.35;1.27;;;48.40;34.40;;;;;;942864;149;26252;-76
2023/08/18 09:33:19;;;;;;;3.77;1.35;;;48.30;34.30;;;;;;962266;145;26232;-76
2023/08/18 09:35:46;;;;;;;1.60;1.50;;;48.10;34.20;;;;;;962881;145;28391;-76
2023/08/18 09:38:13;;;;;;;1.47;1.37;;;48.10;34.30;;;;;;963733;145;26262;-76
2023/08/18 09:40:39;;;;;;;1.67;1.40;;;47.90;33.80;;;;;;963988;146;26243;-76
2023/08/18 09:43:06;;;;;;;1.92;1.30;;;47.80;33.60;;;;;;964356;146;26340;-76
2023/08/18 09:45:32;;;;;;;1.70;1.20;;;47.60;33.90;;;;;;963417;146;26172;-76
2023/08/18 09:47:59;;;;;;;2.22;1.30;;;47.40;33.80;;;;;;963111;145;27753;-76
2023/08/18 09:50:25;;;;;;;1.60;1.50;;;47.10;33.80;;;;;;963361;146;26654;-76
2023/08/18 09:52:55;;;;;;;2.90;1.60;;;46.90;33.90;;;;;;963758;146;26554;-76
2023/08/18 09:55:34;;;;;;;1.55;1.37;;;46.60;34.00;;;;;;963773;146;26369;-76
2023/08/18 09:58:03;;;;;;;2.45;1.40;;;46.30;33.70;;;;;;961470;145;26208;-76
2023/08/18 10:00:30;;;;;;;1.40;1.30;;;46.00;33.80;;;;;;963283;146;26268;-76
2023/08/18 10:02:56;;;;;;;3.60;1.70;;;45.60;34.00;;;;;;962947;145;26230;-76
2023/08/18 10:05:23;;;;;;;2.92;1.60;;;45.20;34.10;;;;;;963046;146;26251;-76
2023/08/18 10:07:50;;;;;;;1.67;1.57;;;44.70;34.80;;;;;;964027;146;26290;-76
2023/08/18 10:10:16;;;;;;;2.30;1.40;;;44.30;34.80;;;;;;946614;148;26216;-76
2023/08/18 10:12:43;;;;;;;1.30;1.20;;;43.80;34.80;;;;;;963780;146;26292;-76
2023/08/18 10:15:09;;;;;;;1.98;1.32;;;43.50;35.60;;;;;;964464;146;26218;-76
2023/08/18 10:17:36;;;;;;;1.70;1.30;;;43.10;34.90;;;;;;964505;145;26344;-76
2023/08/18 10:20:03;;;;;;;1.65;1.30;;;42.80;35.00;;;;;;963689;145;26215;-76
2023/08/18 10:22:29;;;;;;;1.15;1.15;;;42.40;35.00;;;;;;964523;145;26247;-76
2023/08/18 10:24:56;;;;;;;4.17;1.60;;;42.00;35.20;;;;;;964001;146;26224;-76
2023/08/18 10:27:28;;;;;;;1.70;1.30;;;41.70;35.40;;;;;;964451;145;26307;-75
2023/08/18 10:30:01;;;;;;;2.00;1.52;;;41.30;35.40;;;;;;933708;150;26301;-76
2023/08/18 10:32:27;;;;;;;1.70;1.60;;;40.90;35.60;;;;;;932522;150;26346;-75
2023/08/18 10:34:54;;;;;;;2.22;1.55;;;40.50;35.70;;;;;;950759;147;26330;-75
2023/08/18 10:37:23;;;;;;;2.02;1.27;;;40.10;36.00;;;;;;945482;147;26229;-75
2023/08/18 10:39:52;;;;;;;1.50;1.40;;;39.70;36.40;;;;;;950367;147;26395;-76
2023/08/18 10:42:19;;;;;;;2.52;1.22;;;39.40;36.60;;;;;;950380;147;26215;-77
2023/08/18 10:45:06;;;;;;;1.90;1.40;;;39.10;37.00;;;;;;950756;147;27301;-76
2023/08/18 10:47:33;;;;;;;3.17;1.47;;;38.80;37.00;;;;;;949276;147;27392;-77
2023/08/18 10:49:59;;;;;;;1.70;1.60;;;38.50;37.60;;;;;;949791;147;26187;-76
2023/08/18 10:52:29;;;;;;;2.52;1.42;;;38.20;37.50;;;;;;949772;147;26266;-76
2023/08/18 10:54:55;;;;;;;2.22;1.60;;;38.00;38.00;;;;;;951452;147;27726;-76
2023/08/18 10:57:22;;;;;;;1.37;1.27;;;37.70;38.00;;;;;;951093;147;26348;-77
2023/08/18 10:59:48;;;;;;;2.10;1.47;;;37.40;38.20;;;;;;950061;147;26194;-77
2023/08/18 11:02:15;;;;;;;2.80;1.50;;;37.20;38.80;;;;;;951425;147;27254;-76
2023/08/18 11:04:42;;;;;;;1.98;1.35;;;37.00;39.20;;;;;;950257;147;26342;-76
2023/08/18 11:07:08;;;;;;;2.72;1.52;;;36.80;39.30;;;;;;950917;146;27414;-77
2023/08/18 11:09:38;;;;;;;1.25;1.15;;;36.70;39.60;;;;;;951273;147;28337;-76
2023/08/18 11:12:04;;;;;;;2.47;1.42;;;36.60;39.60;;;;;;949951;147;27450;-76
2023/08/18 11:14:31;;;;;;;1.95;1.40;;;36.50;39.50;;;;;;933980;150;27396;-77
2023/08/18 11:16:58;;;;;;;1.80;1.60;;;36.30;39.70;;;;;;930340;149;27382;-75
2023/08/18 11:19:24;;;;;;;1.27;1.17;;;36.20;39.70;;;;;;936006;149;27898;-76
2023/08/18 11:21:51;;;;;;;1.70;1.60;;;36.00;39.90;;;;;;931756;149;27478;-78
2023/08/18 11:24:17;;;;;;;1.17;1.12;;;35.90;40.00;;;;;;934338;150;27402;-76
2023/08/18 11:26:46;;;;;;;1.70;1.30;;;35.90;40.10;;;;;;948631;147;27328;-77
2023/08/18 11:29:11;;;;;;;1.70;1.60;;;35.70;40.50;;;;;;943365;149;27406;-77
2023/08/18 11:31:37;;;;;;;1.77;1.60;;;35.70;40.60;;;;;;941944;149;27437;-77
2023/08/18 11:34:04;;;;;;;1.82;1.32;;;35.60;40.50;;;;;;941912;149;27323;-74
2023/08/18 11:36:30;;;;;;;1.70;1.55;;;35.40;40.50;;;;;;927276;150;27291;-77
2023/08/18 11:39:06;;;;;;;1.50;1.35;;;35.30;40.60;;;;;;932532;149;27388;-74
2023/08/18 11:41:35;;;;;;;1.47;1.37;;;35.20;41.00;;;;;;926228;150;27456;-78
2023/08/18 11:44:02;;;;;;;2.60;2.25;;;35.20;41.20;;;;;;950777;147;27416;-76
2023/08/18 11:46:28;;;;;;;1.55;1.45;;;35.10;41.30;;;;;;942211;149;27338;-76
2023/08/18 11:48:56;;;;;;;1.67;1.50;;;35.10;41.50;;;;;;942698;149;27358;-77
2023/08/18 11:51:22;;;;;;;1.60;1.40;;;35.00;41.60;;;;;;942294;149;27375;-76
2023/08/18 11:53:48;;;;;;;4.50;1.60;;;34.90;41.80;;;;;;942772;149;27670;-76
2023/08/18 11:56:15;;;;;;;1.80;1.70;;;34.90;41.90;;;;;;942534;149;27356;-77
2023/08/18 11:58:41;;;;;;;1.50;1.40;;;34.70;42.00;;;;;;928817;149;27273;-77
2023/08/18 12:01:09;;;;;;;3.58;1.85;;;34.70;42.00;;;;;;950516;147;27349;-76
2023/08/18 12:03:35;;;;;;;1.70;1.55;;;34.70;42.40;;;;;;951223;147;27433;-76
2023/08/18 12:06:02;;;;;;;1.80;1.62;;;34.60;42.20;;;;;;951678;147;27353;-76
2023/08/18 12:08:28;;;;;;;1.70;1.60;;;34.60;42.40;;;;;;950735;147;27437;-77
2023/08/18 12:10:57;;;;;;;2.17;1.57;;;34.50;42.40;;;;;;950224;147;27350;-77
2023/08/18 12:13:21;;;;;;;1.32;1.22;;;34.60;42.80;;;;;;949647;147;27462;-76
2023/08/18 12:15:48;;;;;;;2.25;1.30;;;34.50;42.80;;;;;;950149;147;27292;-76
2023/08/18 12:18:14;;;;;;;1.70;1.60;;;34.50;42.70;;;;;;950971;147;27294;-76
2023/08/18 12:20:41;;;;;;;2.77;1.57;;;34.50;43.00;;;;;;950446;147;27314;-77
2023/08/18 12:23:07;;;;;;;1.60;1.50;;;34.50;43.20;;;;;;949592;146;27436;-76
2023/08/18 12:25:34;;;;;;;1.50;1.40;;;34.50;43.10;;;;;;926250;150;27418;-76
2023/08/18 12:28:00;;;;;;;3.15;1.40;;;34.50;43.00;;;;;;927180;150;27455;-77
2023/08/18 12:30:27;;;;;;;1.95;1.50;;;34.50;43.30;;;;;;926745;150;27408;-77
2023/08/18 12:32:54;;;;;;;1.65;1.55;;;34.60;43.40;;;;;;926127;150;27366;-77
2023/08/18 12:35:20;;;;;;;1.52;1.45;;;34.60;43.30;;;;;;927202;150;27508;-76
2023/08/18 12:37:47;;;;;;;5.05;1.62;;;34.60;43.20;;;;;;926612;150;27408;-76
2023/08/18 12:40:14;;;;;;;1.80;1.70;;;34.60;43.30;;;;;;943596;148;27279;-77
2023/08/18 12:42:40;;;;;;;1.77;1.57;;;34.70;43.50;;;;;;943963;148;27352;-77
2023/08/18 12:45:07;;;;;;;2.05;1.62;;;34.70;43.40;;;;;;943445;148;27334;-76